createdAt,value
2018-06-25T00:01:09.931Z,9.73
2018-06-25T00:03:38.796Z,10.97
2018-06-25T00:06:07.262Z,10.20
2018-06-25T00:08:35.524Z,10.53
2018-06-25T00:11:03.841Z,9.03
2018-06-25T00:13:32.039Z,9.80
2018-06-25T00:16:00.860Z,11.03
2018-06-25T00:18:29.524Z,11.90
2018-06-25T00:20:58.638Z,13.13
2018-06-25T00:23:26.917Z,9.07
2018-06-25T00:25:55.218Z,9.40
2018-06-25T00:28:23.470Z,9.17
2018-06-25T00:30:51.709Z,9.40
2018-06-25T00:33:20.263Z,10.67
2018-06-25T00:35:48.467Z,10.33
2018-06-25T00:38:16.802Z,10.20
2018-06-25T00:40:45.056Z,10.83
2018-06-25T00:43:13.268Z,13.30
2018-06-25T00:45:41.579Z,12.87
2018-06-25T00:48:09.867Z,13.40
2018-06-25T00:50:38.155Z,14.53
2018-06-25T00:53:06.497Z,14.27
2018-06-25T00:55:34.698Z,13.43
2018-06-25T00:58:02.974Z,14.00
2018-06-25T01:00:31.281Z,13.57
2018-06-25T01:02:59.902Z,12.70
2018-06-25T01:05:28.135Z,13.27
2018-06-25T01:07:56.458Z,15.63
2018-06-25T01:10:24.701Z,12.70
2018-06-25T01:12:52.887Z,11.97
2018-06-25T01:15:21.327Z,11.67
2018-06-25T01:17:49.576Z,11.83
2018-06-25T01:20:17.920Z,14.40
2018-06-25T01:22:46.195Z,11.70
2018-06-25T01:25:14.426Z,12.23
2018-06-25T01:27:42.720Z,11.43
2018-06-25T01:30:10.982Z,12.77
2018-06-25T01:32:39.474Z,12.03
2018-06-25T01:35:07.965Z,13.93
2018-06-25T01:37:36.506Z,13.53
2018-06-25T01:40:05.105Z,10.83
2018-06-25T01:42:33.420Z,11.77
2018-06-25T01:45:01.710Z,11.47
2018-06-25T01:47:30.157Z,11.67
2018-06-25T01:49:58.516Z,11.30
2018-06-25T01:52:28.126Z,10.93
2018-06-25T01:54:56.378Z,17.00
2018-06-25T01:57:24.551Z,13.97
2018-06-25T01:59:52.915Z,13.73
2018-06-25T02:02:21.166Z,18.50
2018-06-25T02:04:49.392Z,12.23
2018-06-25T02:07:18.103Z,12.30
2018-06-25T02:09:48.080Z,14.03
2018-06-25T02:12:16.702Z,11.33
2018-06-25T02:14:44.960Z,10.77
2018-06-25T02:17:13.198Z,15.07
2018-06-25T02:19:41.512Z,12.37
2018-06-25T02:22:09.765Z,10.50
2018-06-25T02:24:38.178Z,13.17
2018-06-25T02:27:06.463Z,12.00
2018-06-25T02:29:34.679Z,11.03
2018-06-25T02:32:02.906Z,12.17
2018-06-25T02:34:31.089Z,13.57
2018-06-25T02:36:59.504Z,13.33
2018-06-25T02:39:28.278Z,13.60
2018-06-25T02:41:56.933Z,12.00
2018-06-25T02:44:25.223Z,11.70
2018-06-25T02:46:53.445Z,12.33
2018-06-25T02:49:21.761Z,12.70
2018-06-25T02:51:49.965Z,14.23
2018-06-25T02:54:18.238Z,11.80
2018-06-25T02:56:46.546Z,12.47
2018-06-25T02:59:14.798Z,13.53
2018-06-25T03:01:43.554Z,12.27
2018-06-25T03:04:11.935Z,11.63
2018-06-25T03:06:40.228Z,14.63
2018-06-25T03:09:10.032Z,13.93
2018-06-25T03:11:38.543Z,21.73
2018-06-25T03:14:07.103Z,11.53
2018-06-25T03:16:35.732Z,12.67
2018-06-25T03:19:04.366Z,13.20
2018-06-25T03:21:32.705Z,10.50
2018-06-25T03:24:00.988Z,13.20
2018-06-25T03:26:29.213Z,16.57
2018-06-25T03:28:57.569Z,14.60
2018-06-25T03:31:25.845Z,11.53
2018-06-25T03:33:54.439Z,11.60
2018-06-25T03:36:22.857Z,14.37
2018-06-25T03:38:51.248Z,14.10
2018-06-25T03:41:19.733Z,11.60
2018-06-25T03:43:48.006Z,12.90
2018-06-25T03:46:16.299Z,15.40
2018-06-25T03:48:44.595Z,12.80
2018-06-25T03:51:12.787Z,14.23
2018-06-25T03:53:40.963Z,15.33
2018-06-25T03:56:09.250Z,15.73
2018-06-25T03:58:37.625Z,13.70
2018-06-25T04:01:06.258Z,15.47
2018-06-25T04:03:34.502Z,14.87
2018-06-25T04:06:02.903Z,17.03
2018-06-25T04:08:31.202Z,19.53
2018-06-25T04:10:59.403Z,17.40
2018-06-25T04:13:27.818Z,14.87
2018-06-25T04:15:56.447Z,17.30
2018-06-25T04:18:24.721Z,15.37
2018-06-25T04:20:53.222Z,17.77
2018-06-25T04:23:21.567Z,15.13
2018-06-25T04:25:49.852Z,15.13
2018-06-25T04:28:18.466Z,15.93
2018-06-25T04:30:46.760Z,20.47
2018-06-25T04:33:15.029Z,14.70
2018-06-25T04:35:43.776Z,15.30
2018-06-25T04:38:12.094Z,14.10
2018-06-25T04:40:40.459Z,15.27
2018-06-25T04:43:08.806Z,14.97
2018-06-25T04:45:40.064Z,13.00
2018-06-25T04:48:08.581Z,12.43
2018-06-25T04:50:37.126Z,14.30
2018-06-25T04:53:05.529Z,15.30
2018-06-25T04:55:33.839Z,17.10
2018-06-25T04:58:02.311Z,20.30
2018-06-25T05:00:30.508Z,20.87
2018-06-25T05:02:58.753Z,18.70
2018-06-25T05:05:27.070Z,16.53
2018-06-25T05:07:55.546Z,13.83
2018-06-25T05:10:25.594Z,14.90
2018-06-25T05:12:53.936Z,20.43
2018-06-25T05:15:22.485Z,16.10
2018-06-25T05:17:51.079Z,13.60
2018-06-25T05:20:19.516Z,14.30
2018-06-25T05:22:47.890Z,12.97
2018-06-25T05:25:16.300Z,11.13
2018-06-25T05:27:44.727Z,13.13
2018-06-25T05:30:13.030Z,13.07
2018-06-25T05:32:41.686Z,12.37
2018-06-25T05:35:09.920Z,10.43
2018-06-25T05:37:39.520Z,14.87
2018-06-25T05:40:08.000Z,9.80
2018-06-25T05:42:36.284Z,12.17
2018-06-25T05:45:05.014Z,14.43
2018-06-25T05:47:33.244Z,9.57
2018-06-25T05:50:01.557Z,9.50
2018-06-25T05:52:29.953Z,8.97
2018-06-25T05:54:59.020Z,10.23
2018-06-25T05:57:27.454Z,8.73
2018-06-25T05:59:55.753Z,11.57
2018-06-25T06:02:24.369Z,9.63
2018-06-25T06:04:52.966Z,11.00
2018-06-25T06:07:22.127Z,10.50
2018-06-25T06:09:50.533Z,10.80
2018-06-25T06:12:19.094Z,10.53
2018-06-25T06:14:47.399Z,11.20
2018-06-25T06:17:15.768Z,11.63
2018-06-25T06:19:44.162Z,10.30
2018-06-25T06:22:12.924Z,9.30
2018-06-25T06:24:41.438Z,9.47
2018-06-25T06:27:11.290Z,7.93
2018-06-25T06:29:39.656Z,7.57
2018-06-25T06:32:07.911Z,9.73
2018-06-25T06:34:37.173Z,8.23
2018-06-25T06:37:05.422Z,8.60
2018-06-25T06:39:33.771Z,11.97
2018-06-25T06:42:01.979Z,9.40
2018-06-25T06:44:30.097Z,11.73
2018-06-25T06:46:58.993Z,10.47
2018-06-25T06:49:28.327Z,8.90
2018-06-25T06:51:57.337Z,11.33
2018-06-25T06:54:26.355Z,8.73
2018-06-25T06:56:54.889Z,8.97
2018-06-25T06:59:23.291Z,10.23
2018-06-25T07:01:51.631Z,10.40
2018-06-25T07:04:20.425Z,11.07
2018-06-25T07:06:48.791Z,8.93
2018-06-25T07:09:17.160Z,12.73
2018-06-25T07:11:46.357Z,13.40
2018-06-25T07:14:14.638Z,14.93
2018-06-25T07:16:44.234Z,17.30
2018-06-25T07:19:12.510Z,17.27
2018-06-25T07:21:41.189Z,16.40
2018-06-25T07:24:09.666Z,18.83
2018-06-25T07:26:38.027Z,14.70
2018-06-25T07:29:06.533Z,20.00
2018-06-25T07:31:35.016Z,21.13
2018-06-25T07:34:03.298Z,16.73
2018-06-25T07:36:39.558Z,17.03
2018-06-25T07:39:09.288Z,14.80
2018-06-25T07:41:37.617Z,17.23
2018-06-25T07:44:06.041Z,15.57
2018-06-25T07:46:34.506Z,13.20
2018-06-25T07:49:03.115Z,9.77
2018-06-25T07:51:31.678Z,15.27
2018-06-25T07:53:59.858Z,13.20
2018-06-25T07:56:28.518Z,14.17
2018-06-25T07:58:57.264Z,16.50
2018-06-25T08:01:25.653Z,12.93
2018-06-25T08:03:53.936Z,12.97
2018-06-25T08:06:22.309Z,11.73
2018-06-25T08:08:51.548Z,12.10
2018-06-25T08:11:20.842Z,12.97
2018-06-25T08:13:49.733Z,10.17
2018-06-25T08:16:18.899Z,10.30
2018-06-25T08:18:47.250Z,13.50
2018-06-25T08:21:16.536Z,11.63
2018-06-25T08:23:44.905Z,10.60
2018-06-25T08:26:13.196Z,16.20
2018-06-25T08:28:42.525Z,16.30
2018-06-25T08:31:10.846Z,13.03
2018-06-25T08:33:39.404Z,11.27
2018-06-25T08:36:07.878Z,10.13
2018-06-25T08:38:36.713Z,9.77
2018-06-25T08:41:05.148Z,12.23
2018-06-25T08:43:33.382Z,9.90
2018-06-25T08:46:01.989Z,9.90
2018-06-25T08:48:30.334Z,8.90
2018-06-25T08:50:58.617Z,12.37
2018-06-25T08:53:27.197Z,11.80
2018-06-25T08:55:56.380Z,12.17
2018-06-25T08:58:25.557Z,10.77
2018-06-25T09:00:54.008Z,8.10
2018-06-25T09:03:22.441Z,8.87
2018-06-25T09:05:51.445Z,9.93
2018-06-25T09:08:19.657Z,10.60
2018-06-25T09:10:48.341Z,9.60
2018-06-25T09:13:17.427Z,9.57
2018-06-25T09:15:45.836Z,9.70
2018-06-25T09:18:13.987Z,10.70
2018-06-25T09:20:42.710Z,10.97
2018-06-25T09:23:10.742Z,11.40
2018-06-25T09:25:39.082Z,9.73
2018-06-25T09:28:07.437Z,8.97
2018-06-25T09:30:35.725Z,11.87
2018-06-25T09:33:04.041Z,12.43
2018-06-25T09:35:32.613Z,11.60
2018-06-25T09:38:01.701Z,14.10
2018-06-25T09:40:29.995Z,14.77
2018-06-25T09:42:58.276Z,8.60
2018-06-25T09:45:26.619Z,8.47
2018-06-25T09:47:55.241Z,7.93
2018-06-25T09:50:23.651Z,9.53
2018-06-25T09:52:51.959Z,11.23
2018-06-25T09:55:20.236Z,7.50
2018-06-25T09:57:48.515Z,6.93
2018-06-25T10:00:21.354Z,6.63
2018-06-25T10:02:50.200Z,6.30
2018-06-25T10:05:18.541Z,7.37
2018-06-25T10:07:47.001Z,7.37
2018-06-25T10:10:15.324Z,10.37
2018-06-25T10:12:43.916Z,8.00
2018-06-25T10:15:12.157Z,6.93
2018-06-25T10:17:40.798Z,5.60
2018-06-25T10:20:08.962Z,6.20
2018-06-25T10:22:39.312Z,6.40
2018-06-25T10:25:07.855Z,7.20
2018-06-25T10:27:36.238Z,5.93
2018-06-25T10:30:04.767Z,9.00
2018-06-25T10:32:33.269Z,8.47
2018-06-25T10:35:01.672Z,7.40
2018-06-25T10:37:29.931Z,7.87
2018-06-25T10:39:58.196Z,7.93
2018-06-25T10:42:26.938Z,6.67
2018-06-25T10:44:55.291Z,9.77
2018-06-25T10:47:23.580Z,6.93
2018-06-25T10:49:51.918Z,6.53
2018-06-25T10:52:20.147Z,5.83
2018-06-25T10:54:48.445Z,5.13
2018-06-25T10:57:17.174Z,5.37
2018-06-25T10:59:45.713Z,9.67
2018-06-25T11:02:13.880Z,7.47
2018-06-25T11:04:42.109Z,9.80
2018-06-25T11:07:10.824Z,8.03
2018-06-25T11:09:39.267Z,7.53
2018-06-25T11:12:07.543Z,9.10
2018-06-25T11:14:35.890Z,5.33
2018-06-25T11:17:04.225Z,14.20
2018-06-25T11:19:32.892Z,8.43
2018-06-25T11:22:01.539Z,6.77
2018-06-25T11:24:29.864Z,7.93
2018-06-25T11:26:58.354Z,6.00
2018-06-25T11:29:26.622Z,9.90
2018-06-25T11:31:54.948Z,6.77
2018-06-25T11:34:23.262Z,11.67
2018-06-25T11:36:51.487Z,9.37
2018-06-25T11:39:19.738Z,7.37
2018-06-25T11:41:48.096Z,6.30
2018-06-25T11:44:16.532Z,6.33
2018-06-25T11:46:44.914Z,5.73
2018-06-25T11:49:13.386Z,7.27
2018-06-25T11:51:41.900Z,10.37
2018-06-25T11:54:10.399Z,8.63
2018-06-25T11:56:38.811Z,5.30
2018-06-25T11:59:07.099Z,4.73
2018-06-25T12:01:35.462Z,6.17
2018-06-25T12:04:03.857Z,6.23
2018-06-25T12:06:32.064Z,7.77
2018-06-25T12:09:00.308Z,7.90
2018-06-25T12:11:28.617Z,6.40
2018-06-25T12:13:56.912Z,4.50
2018-06-25T12:16:25.264Z,9.53
2018-06-25T12:18:53.738Z,10.53
2018-06-25T12:21:22.081Z,7.70
2018-06-25T12:23:50.600Z,7.57
2018-06-25T12:26:19.109Z,8.07
2018-06-25T12:28:47.871Z,7.97
2018-06-25T12:31:17.321Z,8.28
2018-06-25T12:33:45.616Z,7.30
2018-06-25T12:36:14.364Z,19.83
2018-06-25T12:38:42.836Z,8.70
2018-06-25T12:41:11.081Z,7.00
2018-06-25T12:43:39.320Z,4.77
2018-06-25T12:46:07.564Z,5.47
2018-06-25T12:48:36.303Z,6.97
2018-06-25T12:51:04.656Z,5.57
2018-06-25T12:53:32.904Z,5.80
2018-06-25T12:56:01.175Z,5.60
2018-06-25T12:58:29.413Z,6.12
2018-06-25T13:00:57.805Z,5.17
2018-06-25T13:03:27.217Z,4.53
2018-06-25T13:05:55.645Z,7.33
2018-06-25T13:08:24.029Z,6.70
2018-06-25T13:10:52.355Z,20.65
2018-06-25T13:13:20.624Z,5.40
2018-06-25T13:15:48.871Z,8.00
2018-06-25T13:18:17.175Z,6.90
2018-06-25T13:20:45.750Z,7.03
2018-06-25T13:23:14.021Z,4.25
2018-06-25T13:25:42.800Z,8.60
2018-06-25T13:28:11.289Z,7.70
2018-06-25T13:30:39.632Z,4.90
2018-06-25T13:33:08.965Z,10.55
2018-06-25T13:35:37.802Z,7.42
2018-06-25T13:38:06.012Z,5.00
2018-06-25T13:40:34.579Z,7.33
2018-06-25T13:43:02.895Z,7.95
2018-06-25T13:45:31.200Z,7.37
2018-06-25T13:48:00.365Z,4.37
2018-06-25T13:50:29.156Z,6.33
2018-06-25T13:52:57.524Z,6.80
2018-06-25T13:55:26.107Z,4.70
2018-06-25T13:57:54.548Z,6.80
2018-06-25T14:00:22.886Z,5.22
2018-06-25T14:02:51.234Z,8.28
2018-06-25T14:05:19.518Z,8.05
2018-06-25T14:07:48.063Z,5.92
2018-06-25T14:10:17.156Z,10.15
2018-06-25T14:12:45.659Z,7.12
2018-06-25T14:15:14.136Z,4.95
2018-06-25T14:17:42.771Z,8.75
2018-06-25T14:20:12.667Z,6.45
2018-06-25T14:22:40.921Z,5.35
2018-06-25T14:25:09.897Z,5.22
2018-06-25T14:27:43.517Z,8.15
2018-06-25T14:30:17.231Z,3.52
2018-06-25T14:32:54.810Z,4.87
2018-06-25T14:35:23.106Z,7.60
2018-06-25T14:37:51.837Z,6.08
2018-06-25T14:40:20.204Z,7.75
2018-06-25T14:42:48.596Z,5.85
2018-06-25T14:45:17.386Z,8.75
2018-06-25T14:47:45.708Z,8.13
2018-06-25T14:50:14.579Z,10.32
2018-06-25T14:52:43.127Z,10.63
2018-06-25T14:55:11.364Z,33.93
2018-06-25T14:57:39.654Z,10.87
2018-06-25T15:00:08.543Z,7.77
2018-06-25T15:02:37.194Z,5.40
2018-06-25T15:05:05.886Z,7.60
2018-06-25T15:07:34.350Z,8.03
2018-06-25T15:10:02.724Z,8.50
2018-06-25T15:12:30.935Z,7.30
2018-06-25T15:14:59.589Z,8.50
2018-06-25T15:17:28.507Z,10.57
2018-06-25T15:19:58.533Z,6.77
2018-06-25T15:22:26.874Z,8.03
2018-06-25T15:24:55.286Z,7.67
2018-06-25T15:27:23.626Z,10.23
2018-06-25T15:29:51.948Z,7.90
2018-06-25T15:32:20.741Z,13.10
2018-06-25T15:34:49.134Z,12.43
2018-06-25T15:37:17.493Z,11.47
2018-06-25T15:39:46.098Z,21.87
2018-06-25T15:42:14.575Z,10.90
2018-06-25T15:44:42.956Z,13.13
2018-06-25T15:47:11.318Z,19.93
2018-06-25T15:49:39.667Z,10.03
2018-06-25T15:52:08.087Z,15.17
2018-06-25T15:54:37.044Z,9.93
2018-06-25T15:57:05.254Z,8.73
2018-06-25T15:59:33.615Z,9.67
2018-06-25T16:02:02.384Z,9.03
2018-06-25T16:04:31.777Z,11.00
2018-06-25T16:07:00.476Z,15.33
2018-06-25T16:09:30.031Z,9.43
2018-06-25T16:11:58.322Z,9.03
2018-06-25T16:14:27.247Z,9.80
2018-06-25T16:16:56.058Z,11.60
2018-06-25T16:19:24.762Z,10.67
2018-06-25T16:21:53.311Z,6.90
2018-06-25T16:24:22.000Z,10.20
2018-06-25T16:26:50.589Z,9.53
2018-06-25T16:29:19.064Z,8.60
2018-06-25T16:31:47.551Z,10.90
2018-06-25T16:34:15.831Z,5.37
2018-06-25T16:36:44.498Z,8.77
2018-06-25T16:39:14.094Z,10.07
2018-06-25T16:41:42.683Z,49.23
2018-06-25T16:44:11.454Z,8.10
2018-06-25T16:46:40.027Z,6.40
2018-06-25T16:49:08.711Z,13.37
2018-06-25T16:51:37.307Z,9.77
2018-06-25T16:54:06.753Z,10.73
2018-06-25T16:56:35.257Z,7.70
2018-06-25T16:59:03.647Z,9.37
2018-06-25T17:01:34.140Z,15.50
2018-06-25T17:04:02.757Z,6.47
2018-06-25T17:06:31.124Z,6.70
2018-06-25T17:08:59.943Z,7.37
2018-06-25T17:11:28.885Z,6.07
2018-06-25T17:13:58.663Z,9.30
2018-06-25T17:16:27.131Z,6.60
2018-06-25T17:18:57.614Z,8.17
2018-06-25T17:21:27.126Z,8.50
2018-06-25T17:23:55.646Z,9.27
2018-06-25T17:26:24.008Z,5.73
2018-06-25T17:28:52.434Z,6.77
2018-06-25T17:31:20.778Z,6.63
2018-06-25T17:33:49.013Z,7.70
2018-06-25T17:36:17.379Z,7.73
2018-06-25T17:38:45.447Z,6.30
2018-06-25T17:41:14.069Z,14.53
2018-06-25T17:43:42.313Z,9.83
2018-06-25T17:46:10.651Z,8.47
2018-06-25T17:48:39.092Z,9.20
2018-06-25T17:51:07.433Z,8.10
2018-06-25T17:53:35.653Z,13.87
2018-06-25T17:56:03.911Z,7.53
2018-06-25T17:58:32.849Z,20.37
2018-06-25T18:01:01.579Z,21.73
2018-06-25T18:03:29.919Z,9.50
2018-06-25T18:05:58.243Z,13.60
2018-06-25T18:08:28.184Z,10.57
2018-06-25T18:10:56.661Z,9.90
2018-06-25T18:13:25.727Z,8.43
2018-06-25T18:15:54.071Z,9.70
2018-06-25T18:18:22.372Z,9.07
2018-06-25T18:20:50.625Z,8.73
2018-06-25T18:23:18.988Z,14.53
2018-06-25T18:25:47.357Z,10.67
2018-06-25T18:28:15.653Z,22.43
2018-06-25T18:30:44.498Z,15.10
2018-06-25T18:33:12.948Z,9.23
2018-06-25T18:35:44.981Z,11.27
2018-06-25T18:38:13.730Z,12.83
2018-06-25T18:40:42.052Z,18.90
2018-06-25T18:43:10.624Z,32.40
2018-06-25T18:45:39.037Z,20.07
2018-06-25T18:48:08.402Z,23.37
2018-06-25T18:50:36.859Z,13.40
2018-06-25T18:53:05.461Z,17.47
2018-06-25T18:55:33.694Z,11.70
2018-06-25T18:58:02.167Z,10.73
2018-06-25T19:00:30.947Z,14.13
2018-06-25T19:02:59.478Z,11.63
2018-06-25T19:05:28.155Z,18.17
2018-06-25T19:07:56.948Z,10.00
2018-06-25T19:10:25.397Z,13.30
2018-06-25T19:12:54.023Z,18.47
2018-06-25T19:15:22.285Z,10.23
2018-06-25T19:17:50.604Z,13.03
2018-06-25T19:20:19.041Z,28.30
2018-06-25T19:22:47.388Z,15.00
2018-06-25T19:25:15.745Z,15.70
2018-06-25T19:27:44.285Z,18.37
2018-06-25T19:30:12.663Z,9.93
2018-06-25T19:32:41.488Z,15.50
2018-06-25T19:35:10.591Z,12.47
2018-06-25T19:37:42.291Z,14.83
2018-06-25T19:40:14.978Z,22.60
2018-06-25T19:42:43.440Z,24.03
2018-06-25T19:45:11.812Z,28.50
2018-06-25T19:47:41.599Z,18.17
2018-06-25T19:50:10.257Z,16.43
2018-06-25T19:52:39.191Z,17.47
2018-06-25T19:55:09.733Z,20.20
2018-06-25T19:57:38.436Z,35.00
2018-06-25T20:00:07.042Z,20.53
2018-06-25T20:02:36.155Z,17.67
2018-06-25T20:05:04.531Z,35.87
2018-06-25T20:07:33.782Z,19.77
2018-06-25T20:10:02.193Z,33.63
2018-06-25T20:12:31.135Z,23.90
2018-06-25T20:14:59.455Z,20.10
2018-06-25T20:17:28.147Z,17.63
2018-06-25T20:19:56.538Z,33.10
2018-06-25T20:22:24.935Z,16.47
2018-06-25T20:24:53.285Z,18.97
2018-06-25T20:27:21.645Z,16.53
2018-06-25T20:29:50.009Z,20.60
2018-06-25T20:32:18.673Z,18.57
2018-06-25T20:34:47.943Z,20.43
2018-06-25T20:37:19.697Z,18.43
2018-06-25T20:39:48.050Z,20.77
2018-06-25T20:42:16.423Z,19.17
2018-06-25T20:44:45.047Z,22.40
2018-06-25T20:47:14.232Z,20.27
2018-06-25T20:49:46.204Z,44.10
2018-06-25T20:52:14.536Z,23.77
2018-06-25T20:54:43.664Z,20.00
2018-06-25T20:57:12.130Z,27.47
2018-06-25T20:59:41.396Z,22.73
2018-06-25T21:02:10.234Z,21.20
2018-06-25T21:04:38.763Z,54.67
2018-06-25T21:07:07.010Z,23.43
2018-06-25T21:09:36.818Z,29.23
2018-06-25T21:12:05.928Z,20.57
2018-06-25T21:14:34.897Z,37.53
2018-06-25T21:17:03.384Z,33.33
2018-06-25T21:19:32.044Z,21.23
2018-06-25T21:22:00.346Z,20.57
2018-06-25T21:24:29.048Z,32.30
2018-06-25T21:26:57.714Z,19.57
2018-06-25T21:29:26.178Z,18.57
2018-06-25T21:31:54.484Z,22.03
2018-06-25T21:34:23.954Z,19.10
2018-06-25T21:36:52.250Z,20.53
2018-06-25T21:39:21.000Z,24.93
2018-06-25T21:41:49.578Z,42.47
2018-06-25T21:44:18.349Z,29.40
2018-06-25T21:46:46.819Z,21.70
2018-06-25T21:49:15.110Z,20.97
2018-06-25T21:51:43.348Z,30.23
2018-06-25T21:54:11.604Z,28.37
2018-06-25T21:56:39.991Z,27.40
2018-06-25T21:59:08.182Z,23.67
2018-06-25T22:01:37.289Z,23.83
2018-06-25T22:04:05.609Z,29.03
2018-06-25T22:06:33.831Z,27.27
2018-06-25T22:09:02.128Z,25.90
2018-06-25T22:11:30.549Z,35.97
2018-06-25T22:13:58.969Z,31.30
2018-06-25T22:16:27.215Z,21.33
2018-06-25T22:18:55.739Z,25.33
2018-06-25T22:21:24.138Z,18.17
2018-06-25T22:23:52.355Z,21.50
2018-06-25T22:26:20.585Z,26.90
2018-06-25T22:28:48.758Z,20.50
2018-06-25T22:31:17.274Z,29.33
2018-06-25T22:33:45.529Z,20.10
2018-06-25T22:36:14.083Z,22.23
2018-06-25T22:38:42.361Z,23.63
2018-06-25T22:41:10.903Z,28.37
2018-06-25T22:43:39.653Z,18.07
2018-06-25T22:46:08.864Z,22.47
2018-06-25T22:48:37.935Z,22.77
2018-06-25T22:51:06.574Z,35.93
2018-06-25T22:53:34.883Z,20.03
2018-06-25T22:56:03.156Z,23.73
2018-06-25T22:58:31.379Z,18.80
2018-06-25T23:00:59.614Z,20.73
2018-06-25T23:03:28.531Z,21.67
2018-06-25T23:05:56.943Z,17.03
2018-06-25T23:08:25.451Z,26.77
2018-06-25T23:10:53.702Z,23.87
2018-06-25T23:13:21.982Z,22.97
2018-06-25T23:15:50.228Z,20.80
2018-06-25T23:18:18.471Z,21.10
2018-06-25T23:20:46.769Z,27.93
2018-06-25T23:23:15.291Z,23.80
2018-06-25T23:25:43.891Z,27.47
2018-06-25T23:28:12.548Z,24.27
2018-06-25T23:30:40.759Z,26.00
2018-06-25T23:33:09.664Z,20.27
2018-06-25T23:35:38.023Z,22.60
2018-06-25T23:38:06.312Z,25.87
2018-06-25T23:40:34.912Z,24.07
2018-06-25T23:43:03.163Z,23.63
2018-06-25T23:45:31.329Z,26.20
2018-06-25T23:47:59.714Z,19.90
2018-06-25T23:50:28.155Z,30.03
2018-06-25T23:52:56.967Z,17.43
2018-06-25T23:55:25.055Z,28.23
2018-06-25T23:57:53.384Z,18.23
